Terminal Aerodrome Forecast
Issued by NWS

Home | Current Version | Previous Version | Text Only | Print | Product List | Glossary On
Versions: 1 2 3 4 5 6 7 8 9 10 11 12 13 14 15 16
160
FTUS46 KLOX 071741
TAFSBA
TAF
KSBA 071741Z 0718/0818 VRB03KT P6SM SCT200
     FM072000 23007KT P6SM BKN120
     FM080000 VRB03KT P6SM OVC100=

USA.gov is the U.S. government's official web portal to all federal, state and local government web resources and services.